Time;durP1;ratioP1;P1;durP2;ratioP2;P2;SDS_P1;SDS_P2;PMS_P1;PMS_P2;Temp;Humidity;BMP_temperature;BMP_pressure;BME280_temperature;BME280_humidity;BME280_pressure;Samples;Min_cycle;Max_cycle;Signal;HPM_P1;HPM_P2
2023/08/14 00:01:45;;;;;;;9.88;3.40;;;;;;;25.67;49.32;101279.91;5027315;27;101167;-66
2023/08/14 00:04:12;;;;;;;11.73;4.35;;;;;;;25.87;48.83;101290.78;5025731;27;98763;-66
2023/08/14 00:06:38;;;;;;;6.35;3.17;;;;;;;25.91;49.17;101284.09;5024688;27;98925;-66
2023/08/14 00:09:06;;;;;;;10.23;3.13;;;;;;;25.93;49.63;101290.25;5025016;27;97207;-65
2023/08/14 00:11:32;;;;;;;7.43;2.85;;;;;;;26.09;49.23;101290.53;5021209;27;100505;-66
2023/08/14 00:13:59;;;;;;;8.95;3.22;;;;;;;26.06;49.88;101288.94;5023417;27;98240;-66
2023/08/14 00:16:26;;;;;;;10.00;3.17;;;;;;;25.85;49.08;101290.94;5025454;27;96911;-67
2023/08/14 00:18:53;;;;;;;8.10;3.58;;;;;;;25.76;49.23;101289.06;5026812;27;96924;-67
2023/08/14 00:21:20;;;;;;;7.18;3.40;;;;;;;25.84;49.04;101291.94;5025702;27;99503;-67
2023/08/14 00:23:46;;;;;;;4.60;3.10;;;;;;;25.60;50.20;101284.16;5026347;27;98066;-67
2023/08/14 00:26:14;;;;;;;6.05;3.15;;;;;;;25.71;50.16;101281.38;5024552;27;97728;-66
2023/08/14 00:28:40;;;;;;;6.57;3.22;;;;;;;25.80;50.00;101285.91;5028099;27;97988;-66
2023/08/14 00:31:07;;;;;;;8.02;3.25;;;;;;;25.80;50.36;101291.34;5025232;27;99333;-67
2023/08/14 00:33:33;;;;;;;7.63;3.70;;;;;;;25.61;51.26;101279.59;5029671;27;98486;-66
2023/08/14 00:36:00;;;;;;;11.65;3.95;;;;;;;25.23;52.28;101296.53;5022122;27;98770;-66
2023/08/14 00:38:27;;;;;;;14.63;3.78;;;;;;;25.52;52.49;101289.41;5032895;27;96884;-66
2023/08/14 00:40:53;;;;;;;4.75;3.15;;;;;;;25.52;53.03;101289.41;5026768;27;99640;-66
2023/08/14 00:43:21;;;;;;;10.63;3.20;;;;;;;25.35;53.73;101293.59;5029455;27;98832;-67
2023/08/14 00:45:50;;;;;;;6.43;3.53;;;;;;;25.14;54.38;101290.06;5031070;27;97583;-67
2023/08/14 00:48:16;;;;;;;9.43;3.67;;;;;;;25.23;53.79;101286.56;5031887;27;96800;-66
2023/08/14 00:50:43;;;;;;;4.95;3.17;;;;;;;25.19;54.84;101289.69;5032517;27;98918;-66
2023/08/14 00:53:12;;;;;;;7.45;3.65;;;;;;;25.17;54.37;101286.25;5030452;27;99032;-66
2023/08/14 00:55:38;;;;;;;11.68;3.58;;;;;;;25.32;54.66;101280.34;5031063;27;96752;-66
2023/08/14 00:58:06;;;;;;;8.77;3.42;;;;;;;25.24;54.25;101287.44;5022899;27;99085;-67
2023/08/14 01:00:35;;;;;;;8.18;3.30;;;;;;;25.18;54.45;101282.56;5032316;27;98950;-66
2023/08/14 01:03:02;;;;;;;6.25;3.17;;;;;;;25.46;54.19;101284.53;5026735;27;99279;-66
2023/08/14 01:05:29;;;;;;;4.95;3.05;;;;;;;25.35;54.54;101287.31;5025400;27;96839;-66
2023/08/14 01:07:55;;;;;;;9.93;3.90;;;;;;;25.38;54.46;101281.66;5029541;27;96735;-66
2023/08/14 01:10:22;;;;;;;4.90;3.10;;;;;;;25.21;54.68;101287.69;5028857;27;98920;-66
2023/08/14 01:12:57;;;;;;;8.18;3.47;;;;;;;25.11;55.65;101292.19;5026449;27;99094;-67
2023/08/14 01:15:30;;;;;;;8.05;3.47;;;;;;;25.03;56.41;101290.16;5027633;27;98764;-67
2023/08/14 01:18:00;;;;;;;7.93;2.95;;;;;;;24.95;56.80;101298.94;5025285;27;98780;-66
2023/08/14 01:20:29;;;;;;;6.68;3.35;;;;;;;24.90;57.16;101295.78;5026451;27;99053;-66
2023/08/14 01:23:18;;;;;;;8.13;3.30;;;;;;;24.96;57.45;101286.28;5031897;27;98809;-66
2023/08/14 01:25:46;;;;;;;4.55;3.30;;;;;;;24.87;57.54;101293.34;5030603;27;99122;-66
2023/08/14 01:28:13;;;;;;;5.82;3.70;;;;;;;24.85;57.57;101289.91;5027855;27;98242;-66
2023/08/14 01:30:40;;;;;;;3.35;2.83;;;;;;;24.74;58.44;101286.41;5030884;27;101174;-66
2023/08/14 01:33:07;;;;;;;10.25;4.53;;;;;;;24.87;58.41;101290.63;5030075;27;98936;-65
2023/08/14 01:35:40;;;;;;;5.32;3.35;;;;;;;25.02;57.73;101294.72;5031480;27;96828;-66
2023/08/14 01:38:14;;;;;;;8.82;3.83;;;;;;;25.01;57.87;101298.41;5028103;27;98698;-66
2023/08/14 01:40:52;;;;;;;4.10;3.17;;;;;;;24.89;58.63;101296.78;5030285;27;98211;-66
2023/08/14 01:43:25;;;;;;;9.50;4.00;;;;;;;24.92;58.72;101293.81;5030007;27;99032;-66
2023/08/14 01:45:53;;;;;;;7.35;3.22;;;;;;;24.95;58.59;101298.09;5027612;27;96742;-66
2023/08/14 01:48:22;;;;;;;6.18;3.30;;;;;;;24.96;58.39;101295.25;5029953;27;96870;-66
2023/08/14 01:50:49;;;;;;;3.65;3.17;;;;;;;25.02;58.12;101289.31;5028503;27;99088;-66
2023/08/14 01:53:16;;;;;;;9.90;3.95;;;;;;;24.99;58.73;101291.44;5026449;27;98829;-66
2023/08/14 01:55:43;;;;;;;4.85;3.38;;;;;;;25.07;58.00;101288.94;5031272;27;97611;-66
2023/08/14 01:58:11;;;;;;;5.80;3.00;;;;;;;25.04;58.69;101288.31;5019887;27;97105;-66
2023/08/14 02:00:37;;;;;;;8.48;4.00;;;;;;;25.01;58.50;101287.59;5027591;27;99498;-66
2023/08/14 02:03:04;;;;;;;6.50;3.40;;;;;;;24.94;58.89;101291.81;5025955;27;98983;-66
2023/08/14 02:05:31;;;;;;;3.95;3.28;;;;;;;24.84;59.23;101290.88;5029368;27;99827;-66
2023/08/14 02:07:57;;;;;;;6.38;3.30;;;;;;;24.85;59.32;101287.19;5024667;27;98003;-66
2023/08/14 02:10:23;;;;;;;6.18;3.15;;;;;;;24.81;59.79;101291.13;5022164;27;99322;-66
2023/08/14 02:12:50;;;;;;;4.25;3.55;;;;;;;24.96;58.95;101286.28;5026327;27;99049;-66
2023/08/14 02:15:20;;;;;;;3.67;3.10;;;;;;;24.83;59.78;101288.31;5024387;27;97248;-66
2023/08/14 02:17:46;;;;;;;6.03;3.67;;;;;;;24.87;59.16;101285.22;5029459;27;97119;-66
2023/08/14 02:20:12;;;;;;;4.95;3.38;;;;;;;25.06;58.45;101284.50;5025589;27;98958;-66
2023/08/14 02:22:39;;;;;;;6.65;3.33;;;;;;;25.01;59.03;101279.47;5025499;27;99057;-66
2023/08/14 02:25:05;;;;;;;11.20;3.50;;;;;;;25.09;59.08;101280.66;5029334;27;97213;-66
2023/08/14 02:27:32;;;;;;;5.20;2.70;;;;;;;24.97;58.99;101283.44;5029059;27;96866;-66
2023/08/14 02:29:58;;;;;;;6.07;3.03;;;;;;;24.80;59.72;101291.28;5029925;27;99430;-65
2023/08/14 02:32:26;;;;;;;4.03;3.15;;;;;;;24.73;60.32;101287.41;5024296;27;99135;-66
2023/08/14 02:34:53;;;;;;;5.93;3.67;;;;;;;24.84;59.79;101287.31;5028706;27;96749;-66
2023/08/14 02:37:21;;;;;;;5.60;3.22;;;;;;;24.84;60.03;101285.47;5026232;27;96772;-65
2023/08/14 02:39:47;;;;;;;6.65;3.25;;;;;;;24.97;59.61;101288.84;5024247;27;99159;-66
2023/08/14 02:42:15;;;;;;;9.70;3.22;;;;;;;24.68;60.60;101297.75;5025013;27;98874;-66
2023/08/14 02:44:42;;;;;;;6.07;3.05;;;;;;;24.35;62.05;101288.81;5029609;27;98167;-65
2023/08/14 02:47:08;;;;;;;4.03;3.17;;;;;;;24.61;60.87;101292.84;5028957;27;97060;-65
2023/08/14 02:49:36;;;;;;;8.93;3.35;;;;;;;24.50;61.57;101290.22;5030967;27;102079;-66
2023/08/14 02:52:02;;;;;;;6.22;3.50;;;;;;;24.41;62.21;101295.56;5028116;27;97641;-66
2023/08/14 02:54:29;;;;;;;4.78;3.25;;;;;;;24.63;61.93;101287.31;5029368;27;97184;-66
2023/08/14 02:56:55;;;;;;;6.93;3.58;;;;;;;24.36;62.56;101293.22;5030324;27;96791;-66
2023/08/14 02:59:22;;;;;;;4.68;3.03;;;;;;;24.38;62.89;101299.38;5026604;27;99078;-66
2023/08/14 03:01:48;;;;;;;7.15;3.38;;;;;;;24.20;63.39;101300.94;5021320;27;97780;-66
2023/08/14 03:04:15;;;;;;;6.55;3.30;;;;;;;24.41;63.05;101298.25;5024136;27;98357;-66
2023/08/14 03:06:43;;;;;;;7.78;3.70;;;;;;;24.13;64.55;101289.75;5029079;27;96838;-66
2023/08/14 03:09:10;;;;;;;4.68;3.28;;;;;;;24.25;64.35;101292.44;5023295;27;99355;-66
2023/08/14 03:11:37;;;;;;;4.32;3.88;;;;;;;24.17;64.35;101302.00;5021387;27;97957;-66
2023/08/14 03:14:03;;;;;;;9.38;3.60;;;;;;;23.86;66.05;101301.97;5027908;27;96796;-66
2023/08/14 03:16:30;;;;;;;6.75;3.70;;;;;;;23.82;66.24;101309.47;5028723;27;97337;-66
2023/08/14 03:18:56;;;;;;;8.23;3.33;;;;;;;23.83;66.67;101305.78;5016965;27;99429;-66
2023/08/14 03:21:23;;;;;;;5.50;3.35;;;;;;;23.93;66.73;101308.59;5020192;27;98969;-66
2023/08/14 03:23:51;;;;;;;6.85;3.65;;;;;;;23.81;67.15;101313.16;5023410;27;96817;-65
2023/08/14 03:26:17;;;;;;;6.60;3.65;;;;;;;23.70;66.79;101315.84;5024276;27;96881;-66
2023/08/14 03:28:44;;;;;;;3.88;2.83;;;;;;;23.91;66.47;101311.41;5028261;27;99143;-66
2023/08/14 03:31:13;;;;;;;6.38;3.53;;;;;;;23.80;66.90;101306.03;5025400;27;99139;-66
2023/08/14 03:33:39;;;;;;;8.90;4.32;;;;;;;23.58;67.78;101306.06;5023330;27;101243;-67
2023/08/14 03:36:06;;;;;;;5.93;3.83;;;;;;;23.48;68.19;101308.66;5024139;27;96760;-67
2023/08/14 03:38:32;;;;;;;7.22;4.00;;;;;;;23.36;68.88;101298.84;5024116;27;98972;-67
2023/08/14 03:41:00;;;;;;;8.25;3.90;;;;;;;23.19;69.89;101302.84;5026380;27;98796;-67
2023/08/14 03:43:26;;;;;;;8.15;3.78;;;;;;;23.39;69.42;101303.97;5024348;27;96882;-66
2023/08/14 03:45:52;;;;;;;5.20;3.47;;;;;;;23.33;69.29;101304.47;5025023;27;96923;-68
2023/08/14 03:48:19;;;;;;;6.80;3.97;;;;;;;23.40;68.64;101298.47;5029241;27;98997;-67
2023/08/14 03:50:46;;;;;;;4.10;3.40;;;;;;;23.15;70.03;101298.69;5024859;27;98801;-66
2023/08/14 03:53:12;;;;;;;5.50;3.92;;;;;;;23.32;69.43;101303.59;5022670;27;97187;-67
2023/08/14 03:55:39;;;;;;;7.13;4.05;;;;;;;23.30;68.90;101304.72;5017259;27;99364;-66
2023/08/14 03:58:07;;;;;;;7.28;3.80;;;;;;;23.12;69.81;101300.75;5024181;27;99165;-66
2023/08/14 04:00:33;;;;;;;5.32;3.53;;;;;;;23.00;70.56;101308.00;5019967;27;98953;-65
2023/08/14 04:02:59;;;;;;;4.90;3.80;;;;;;;23.05;70.24;101309.34;5019470;27;96772;-65
2023/08/14 04:05:26;;;;;;;6.10;3.72;;;;;;;23.08;69.94;101300.16;5025885;27;96795;-66
2023/08/14 04:07:52;;;;;;;4.47;3.38;;;;;;;23.12;70.45;101307.03;5026855;27;101302;-67
2023/08/14 04:10:18;;;;;;;5.50;3.50;;;;;;;23.09;70.41;101304.59;5031206;27;101348;-66
2023/08/14 04:12:45;;;;;;;7.47;4.00;;;;;;;23.19;69.67;101302.84;5032520;27;97912;-67
2023/08/14 04:15:17;;;;;;;6.03;4.45;;;;;;;23.17;70.05;101302.13;5024656;27;96929;-67
2023/08/14 04:17:44;;;;;;;7.30;3.55;;;;;;;23.29;69.25;101311.94;5028149;27;100977;-68
2023/08/14 04:20:11;;;;;;;14.52;4.10;;;;;;;23.21;69.17;101311.69;5029496;27;99322;-67
2023/08/14 04:22:38;;;;;;;6.57;4.03;;;;;;;23.00;70.15;101311.53;5030805;27;96765;-66
2023/08/14 04:25:05;;;;;;;7.65;3.40;;;;;;;23.31;69.23;101312.66;5031468;27;98591;-67
2023/08/14 04:27:31;;;;;;;9.25;3.65;;;;;;;23.08;69.89;101310.94;5023025;27;99121;-67
2023/08/14 04:29:58;;;;;;;10.32;3.63;;;;;;;23.39;68.88;101302.13;5023081;27;99181;-67
2023/08/14 04:32:26;;;;;;;7.38;3.67;;;;;;;23.21;69.10;101303.59;5028248;27;97715;-67
2023/08/14 04:34:52;;;;;;;7.82;4.05;;;;;;;23.47;68.23;101311.44;5028308;27;96779;-67
2023/08/14 04:37:19;;;;;;;7.57;3.63;;;;;;;23.62;67.88;101307.56;5026005;27;98270;-66
2023/08/14 04:39:45;;;;;;;9.18;3.95;;;;;;;23.40;68.46;101309.25;5025693;27;98634;-67
2023/08/14 04:42:11;;;;;;;8.85;3.78;;;;;;;23.69;67.53;101306.06;5026693;27;97233;-67
2023/08/14 04:44:38;;;;;;;8.80;4.35;;;;;;;23.97;66.43;101313.59;5033413;27;96910;-68
2023/08/14 04:47:04;;;;;;;12.98;3.88;;;;;;;23.75;67.05;101308.25;5025666;27;98951;-67
2023/08/14 04:49:32;;;;;;;11.43;4.20;;;;;;;23.79;66.75;101315.13;5028337;27;99128;-67
2023/08/14 04:51:59;;;;;;;7.45;4.22;;;;;;;23.89;66.27;101318.78;5024933;27;97484;-70
2023/08/14 04:54:26;;;;;;;11.70;4.78;;;;;;;24.17;65.32;101309.22;5025056;27;98222;-68
2023/08/14 04:56:52;;;;;;;8.48;5.72;;;;;;;23.98;65.44;101312.63;5024009;27;101222;-67
2023/08/14 04:59:19;;;;;;;7.55;4.55;;;;;;;24.17;65.34;101312.78;5032045;27;98797;-67
2023/08/14 05:01:45;;;;;;;10.07;4.20;;;;;;;24.30;64.60;101311.78;5026474;27;97723;-66
2023/08/14 05:04:11;;;;;;;6.07;3.50;;;;;;;24.63;62.84;101309.81;5029398;27;96976;-66
2023/08/14 05:06:39;;;;;;;8.55;4.10;;;;;;;24.95;61.99;101315.16;5024146;27;98847;-67
2023/08/14 05:09:05;;;;;;;7.28;3.97;;;;;;;24.78;61.64;101312.19;5027495;27;98796;-67
2023/08/14 05:11:32;;;;;;;12.25;5.85;;;;;;;24.71;62.16;101317.25;5029236;27;97749;-67
2023/08/14 05:13:58;;;;;;;8.00;5.32;;;;;;;24.76;62.70;101315.00;5030104;27;97171;-66
2023/08/14 05:16:26;;;;;;;13.35;4.43;;;;;;;24.82;62.08;101321.72;5026690;27;98888;-67
2023/08/14 05:18:53;;;;;;;9.38;4.50;;;;;;;24.94;62.17;101313.44;5027615;27;99763;-67
2023/08/14 05:21:19;;;;;;;9.50;4.13;;;;;;;25.07;61.77;101321.38;5027610;27;96875;-67
2023/08/14 05:23:47;;;;;;;4.65;3.85;;;;;;;25.22;61.47;101321.84;5024983;27;97371;-66
2023/08/14 05:26:13;;;;;;;7.68;4.00;;;;;;;25.38;59.98;101319.53;5026198;27;99282;-67
2023/08/14 05:28:40;;;;;;;9.52;3.47;;;;;;;25.33;59.76;101322.66;5025498;27;98757;-67
2023/08/14 05:31:08;;;;;;;8.70;3.95;;;;;;;25.23;59.88;101323.56;5025462;27;97276;-67
2023/08/14 05:33:34;;;;;;;13.57;4.18;;;;;;;25.36;59.22;101326.91;5022668;27;101206;-67
2023/08/14 05:36:01;;;;;;;6.32;3.38;;;;;;;25.47;59.00;101315.16;5028188;27;99090;-66
2023/08/14 05:38:27;;;;;;;7.72;3.72;;;;;;;25.55;58.36;101316.16;5028496;27;97735;-66
2023/08/14 05:40:55;;;;;;;11.52;3.95;;;;;;;25.77;57.30;101318.69;5028589;27;98604;-67
2023/08/14 05:43:21;;;;;;;9.05;3.53;;;;;;;25.59;57.36;101325.78;5029735;27;97186;-66
2023/08/14 05:45:50;;;;;;;8.35;3.45;;;;;;;25.91;56.71;101325.56;5031977;27;98980;-66
2023/08/14 05:48:16;;;;;;;9.15;3.47;;;;;;;26.01;56.52;101325.56;5026973;27;99201;-66
2023/08/14 05:50:42;;;;;;;10.48;3.47;;;;;;;26.15;56.03;101327.88;5022896;27;97234;-66
2023/08/14 05:53:09;;;;;;;5.55;3.47;;;;;;;26.21;55.71;101327.31;5028714;27;96997;-66
2023/08/14 05:55:38;;;;;;;9.55;3.65;;;;;;;26.14;55.63;101327.03;5027759;27;98886;-66
2023/08/14 05:58:06;;;;;;;5.80;3.47;;;;;;;25.92;56.21;101329.13;5027122;27;99133;-67
2023/08/14 06:00:33;;;;;;;5.60;3.28;;;;;;;26.42;55.65;101322.66;5024438;27;96840;-66
2023/08/14 06:03:00;;;;;;;7.97;3.30;;;;;;;26.27;55.28;101324.06;5031671;27;97650;-67
2023/08/14 06:05:27;;;;;;;9.02;3.72;;;;;;;26.52;54.56;101331.63;5031421;27;100940;-67
2023/08/14 06:07:54;;;;;;;10.20;3.75;;;;;;;26.67;53.89;101329.34;5024529;27;98809;-66
2023/08/14 06:10:21;;;;;;;7.25;3.80;;;;;;;26.75;53.37;101329.47;5026143;27;97487;-66
2023/08/14 06:12:49;;;;;;;14.93;3.80;;;;;;;27.08;52.70;101333.59;5030355;27;96842;-66
2023/08/14 06:15:18;;;;;;;11.20;3.65;;;;;;;27.30;52.01;101335.97;5030291;27;97767;-66
2023/08/14 06:17:45;;;;;;;9.13;4.35;;;;;;;27.18;52.66;101334.41;5032295;27;98798;-66
2023/08/14 06:20:12;;;;;;;8.93;3.63;;;;;;;27.44;52.20;101329.16;5030833;27;97615;-65
2023/08/14 06:22:40;;;;;;;6.03;3.25;;;;;;;27.38;51.42;101336.06;5025776;27;96773;-66
2023/08/14 06:25:07;;;;;;;8.02;3.90;;;;;;;27.43;51.38;101334.78;5030609;27;99350;-67
2023/08/14 06:27:34;;;;;;;8.18;3.90;;;;;;;27.74;50.67;101333.50;5031153;27;100905;-65
2023/08/14 06:30:01;;;;;;;15.35;4.10;;;;;;;27.64;50.69;101344.41;5031715;27;96823;-66
2023/08/14 06:32:28;;;;;;;5.10;3.45;;;;;;;27.81;49.73;101348.19;5026333;27;96912;-66
2023/08/14 06:34:55;;;;;;;7.47;4.25;;;;;;;27.93;49.67;101341.53;5028905;27;98887;-66
2023/08/14 06:37:22;;;;;;;12.93;3.20;;;;;;;27.79;49.93;101352.06;5029917;27;99109;-66
2023/08/14 06:39:48;;;;;;;7.72;3.85;;;;;;;27.97;49.28;101347.50;5031188;27;97432;-66
2023/08/14 06:42:15;;;;;;;9.38;3.20;;;;;;;28.04;49.42;101360.34;5024034;27;97180;-68
2023/08/14 06:44:41;;;;;;;7.13;3.30;;;;;;;28.08;48.67;101353.59;5034350;27;98334;-68
2023/08/14 06:47:07;;;;;;;11.07;4.00;;;;;;;28.21;47.97;101349.69;5026344;27;101884;-66
2023/08/14 06:49:35;;;;;;;4.75;3.00;;;;;;;28.40;47.44;101344.09;5029049;27;97153;-67
2023/08/14 06:52:02;;;;;;;8.88;3.70;;;;;;;28.50;47.30;101348.44;5024612;27;98621;-66
2023/08/14 06:54:28;;;;;;;9.18;3.60;;;;;;;28.57;47.25;101342.38;5030922;27;99062;-66
2023/08/14 06:56:55;;;;;;;7.60;3.50;;;;;;;28.47;47.04;101342.47;5025366;27;99651;-66
2023/08/14 06:59:21;;;;;;;8.07;3.30;;;;;;;28.45;46.44;101341.75;5026780;27;96813;-66
2023/08/14 07:01:48;;;;;;;10.20;3.42;;;;;;;28.73;46.15;101342.53;5017948;27;97673;-66
2023/08/14 07:04:14;;;;;;;6.57;3.08;;;;;;;29.25;44.87;101335.28;5027906;27;99745;-66
2023/08/14 07:06:42;;;;;;;9.52;3.22;;;;;;;29.60;44.11;101342.47;5022691;27;102021;-66
2023/08/14 07:09:09;;;;;;;7.90;2.92;;;;;;;29.58;43.52;101342.63;5029494;27;96706;-66
2023/08/14 07:11:38;;;;;;;10.20;3.30;;;;;;;29.24;43.96;101341.72;5027897;27;98566;-66
2023/08/14 07:14:05;;;;;;;6.35;3.05;;;;;;;29.61;42.96;101331.41;5027985;27;98933;-66
2023/08/14 07:16:32;;;;;;;11.07;4.43;;;;;;;29.84;42.41;101331.66;5021637;27;98142;-67
2023/08/14 07:18:58;;;;;;;10.85;3.25;;;;;;;29.92;42.55;101330.88;5024423;27;97388;-67
2023/08/14 07:21:25;;;;;;;12.15;3.30;;;;;;;29.87;42.95;101342.22;5028498;27;96930;-67
2023/08/14 07:23:52;;;;;;;9.75;3.10;;;;;;;30.36;42.34;101336.94;5025635;27;98223;-67
2023/08/14 07:26:19;;;;;;;5.30;2.70;;;;;;;30.31;41.47;101333.88;5029660;27;98820;-68
2023/08/14 07:28:45;;;;;;;6.55;2.90;;;;;;;31.08;40.50;101327.06;5027592;27;97155;-68
2023/08/14 07:31:12;;;;;;;11.00;4.60;;;;;;;31.12;39.74;101328.41;5031698;27;96934;-68
2023/08/14 07:33:38;;;;;;;5.25;2.80;;;;;;;31.82;38.63;101323.09;5030405;27;98416;-67
2023/08/14 07:36:05;;;;;;;11.68;2.88;;;;;;;32.02;37.40;101327.94;5025599;27;98089;-68
2023/08/14 07:38:31;;;;;;;8.02;2.90;;;;;;;31.66;37.70;101332.22;5029899;27;96890;-67
2023/08/14 07:40:59;;;;;;;12.57;2.95;;;;;;;31.56;37.56;101323.38;5027260;27;96880;-67
2023/08/14 07:43:25;;;;;;;4.65;2.90;;;;;;;31.70;37.59;101328.13;5024682;27;101989;-67
2023/08/14 07:45:52;;;;;;;7.55;2.78;;;;;;;31.78;38.11;101329.94;5024566;27;98795;-67
2023/08/14 07:48:19;;;;;;;4.22;2.33;;;;;;;31.87;37.12;101334.34;5029459;27;97329;-67
2023/08/14 07:50:45;;;;;;;5.63;2.63;;;;;;;31.95;37.16;101335.16;5034132;27;100869;-69
2023/08/14 07:53:12;;;;;;;6.95;2.70;;;;;;;31.71;37.95;101335.25;5029742;27;97813;-68
2023/08/14 07:55:39;;;;;;;3.25;2.47;;;;;;;32.00;37.86;101335.47;5026002;27;98359;-68
2023/08/14 07:58:06;;;;;;;5.70;2.42;;;;;;;31.19;38.65;101340.34;5028624;27;98090;-68
2023/08/14 08:00:33;;;;;;;4.55;2.30;;;;;;;31.57;37.42;101349.66;5027988;27;96883;-68
2023/08/14 08:02:59;;;;;;;9.23;2.60;;;;;;;31.33;37.70;101346.97;5023584;27;99107;-69
2023/08/14 08:05:26;;;;;;;3.78;2.15;;;;;;;31.32;37.90;101348.84;5028260;27;98771;-66
2023/08/14 08:07:52;;;;;;;5.28;2.30;;;;;;;31.27;38.53;101352.13;5023268;27;97880;-68
2023/08/14 08:10:18;;;;;;;9.75;2.90;;;;;;;31.04;39.38;101350.25;5028639;27;96913;-68
2023/08/14 08:12:45;;;;;;;7.07;2.50;;;;;;;31.09;38.42;101346.03;5024011;27;102727;-68
2023/08/14 08:15:12;;;;;;;6.32;2.22;;;;;;;30.94;38.42;101355.03;5028898;27;97054;-67
2023/08/14 08:17:39;;;;;;;6.00;2.35;;;;;;;31.09;37.70;101356.94;5028330;27;96827;-69
2023/08/14 08:20:07;;;;;;;3.42;1.92;;;;;;;31.25;37.28;101365.06;5027969;27;97655;-67
2023/08/14 08:22:35;;;;;;;8.90;2.00;;;;;;;31.31;37.01;101362.72;5025783;27;98977;-68
2023/08/14 08:25:01;;;;;;;3.88;1.98;;;;;;;31.64;35.09;101356.13;5030177;27;98484;-69
2023/08/14 08:27:28;;;;;;;4.97;2.20;;;;;;;31.85;34.57;101353.63;5029472;27;97556;-68
2023/08/14 08:29:54;;;;;;;4.32;1.75;;;;;;;31.94;34.56;101355.31;5024546;27;97334;-68
2023/08/14 08:32:22;;;;;;;5.75;2.00;;;;;;;31.71;34.76;101356.25;5022709;27;99505;-71
2023/08/14 08:34:48;;;;;;;4.38;2.22;;;;;;;31.78;34.63;101357.25;5028627;27;99958;-69
2023/08/14 08:37:16;;;;;;;5.32;2.13;;;;;;;31.47;35.22;101359.91;5026370;27;97090;-68
2023/08/14 08:39:42;;;;;;;4.32;1.67;;;;;;;31.55;34.50;101351.69;5030881;27;97195;-68
2023/08/14 08:42:09;;;;;;;6.18;2.45;;;;;;;31.81;34.22;101346.84;5027582;27;98983;-69
2023/08/14 08:44:39;;;;;;;7.30;1.95;;;;;;;31.64;33.74;101348.78;5030163;27;98238;-67
2023/08/14 08:47:08;;;;;;;5.20;1.98;;;;;;;31.55;32.93;101333.44;5020843;27;97065;-67
2023/08/14 08:49:37;;;;;;;4.90;2.22;;;;;;;32.05;33.43;101343.97;5021448;27;98489;-67
2023/08/14 08:52:04;;;;;;;3.63;2.00;;;;;;;32.11;33.09;101341.53;5030793;27;98858;-67
2023/08/14 08:54:31;;;;;;;3.42;1.95;;;;;;;32.38;32.95;101332.84;5022008;27;97575;-68
2023/08/14 08:56:58;;;;;;;5.82;2.40;;;;;;;32.22;33.50;101332.97;5027817;27;96905;-68
2023/08/14 08:59:25;;;;;;;5.60;2.47;;;;;;;32.33;33.41;101329.81;5033552;27;96895;-68
2023/08/14 09:01:52;;;;;;;6.32;2.17;;;;;;;32.38;33.68;101330.97;5028750;27;98788;-68
2023/08/14 09:04:19;;;;;;;5.40;1.90;;;;;;;32.25;33.16;101332.59;5023825;27;99381;-68
2023/08/14 09:06:47;;;;;;;6.78;2.20;;;;;;;32.21;33.14;101329.41;5022263;27;97414;-69
2023/08/14 09:09:15;;;;;;;3.63;1.73;;;;;;;32.26;32.42;101326.97;5026600;27;97372;-69
2023/08/14 09:11:42;;;;;;;6.20;1.92;;;;;;;32.24;31.81;101333.63;5026756;27;98824;-68
2023/08/14 09:14:08;;;;;;;4.40;2.13;;;;;;;32.50;30.88;101331.38;5027117;27;100960;-68
2023/08/14 09:16:35;;;;;;;6.10;1.88;;;;;;;32.30;31.22;101325.56;5029727;27;96796;-69
2023/08/14 09:19:01;;;;;;;5.93;1.90;;;;;;;32.57;31.81;101329.63;5021783;27;97445;-69
2023/08/14 09:21:29;;;;;;;6.50;2.83;;;;;;;32.22;32.90;101322.03;5027426;27;98941;-68
2023/08/14 09:23:57;;;;;;;7.25;2.08;;;;;;;32.43;33.07;101316.72;5026434;27;101121;-68
2023/08/14 09:26:24;;;;;;;4.20;1.70;;;;;;;32.16;32.09;101320.88;5012758;27;98563;-68
2023/08/14 09:28:50;;;;;;;4.47;2.00;;;;;;;32.10;32.03;101327.03;5016777;27;97658;-68
2023/08/14 09:31:17;;;;;;;3.38;1.85;;;;;;;31.96;31.68;101317.72;5012451;27;99299;-68
2023/08/14 09:33:45;;;;;;;4.60;1.60;;;;;;;32.18;31.48;101316.06;5024327;27;99478;-69
2023/08/14 09:36:13;;;;;;;3.72;2.17;;;;;;;32.43;31.96;101316.72;5028100;27;97265;-69
2023/08/14 09:38:40;;;;;;;6.50;2.10;;;;;;;32.48;31.88;101313.47;5027459;27;96991;-68
2023/08/14 09:41:07;;;;;;;3.95;2.13;;;;;;;32.35;32.51;101311.34;5031648;27;97684;-68
2023/08/14 09:43:34;;;;;;;5.03;1.75;;;;;;;32.93;31.67;101307.09;5022703;27;98819;-70
2023/08/14 09:46:03;;;;;;;3.30;1.75;;;;;;;32.54;32.21;101310.84;5029984;27;97228;-71
2023/08/14 09:48:43;;;;;;;5.97;1.77;;;;;;;32.20;32.56;101313.16;5018956;27;97390;-69
2023/08/14 09:51:11;;;;;;;12.60;2.83;;;;;;;32.48;32.65;101313.47;5029271;27;98182;-70
2023/08/14 09:53:44;;;;;;;5.32;2.17;;;;;;;32.71;32.26;101308.84;5025165;27;98832;-68
2023/08/14 09:56:12;;;;;;;5.40;1.80;;;;;;;32.76;31.78;101296.31;5024489;27;100054;-69
2023/08/14 09:58:38;;;;;;;7.72;2.42;;;;;;;32.38;31.83;101300.03;5021754;27;96865;-70
2023/08/14 10:01:06;;;;;;;2.33;1.52;;;;;;;32.53;32.12;101297.34;5025291;27;99543;-69
2023/08/14 10:03:34;;;;;;;3.97;1.73;;;;;;;32.63;31.94;101296.03;5025003;27;99505;-69
2023/08/14 10:06:03;;;;;;;4.20;1.80;;;;;;;32.17;31.34;101302.56;5020657;27;97239;-69
2023/08/14 10:08:33;;;;;;;3.53;1.73;;;;;;;32.35;30.87;101300.41;5024424;27;97236;-68
2023/08/14 10:11:02;;;;;;;3.95;2.10;;;;;;;32.33;30.51;101307.94;5027399;27;99150;-68
2023/08/14 10:13:32;;;;;;;4.28;1.40;;;;;;;32.00;29.38;101324.53;5023215;27;99356;-68
2023/08/14 10:16:03;;;;;;;4.35;1.48;;;;;;;32.12;29.77;101335.03;5010704;27;97847;-68
2023/08/14 10:18:31;;;;;;;3.42;1.55;;;;;;;32.39;29.03;101329.09;5025035;27;96920;-69
2023/08/14 10:20:59;;;;;;;4.15;2.42;;;;;;;32.57;28.65;101329.63;5026627;27;99555;-68
2023/08/14 10:23:26;;;;;;;5.20;1.70;;;;;;;32.65;29.24;101329.56;5025652;27;98050;-64
2023/08/14 10:25:54;;;;;;;6.38;1.48;;;;;;;32.62;28.99;101332.69;5025657;27;97069;-64
2023/08/14 10:28:20;;;;;;;4.35;1.38;;;;;;;32.71;28.76;101315.16;5017220;27;98024;-64
2023/08/14 10:30:48;;;;;;;3.72;1.73;;;;;;;32.60;29.04;101320.22;5025206;27;98945;-64
2023/08/14 10:33:17;;;;;;;4.03;1.40;;;;;;;32.68;29.10;101317.44;5020264;27;98810;-63
2023/08/14 10:35:49;;;;;;;3.42;1.55;;;;;;;32.74;29.16;101313.97;5021438;27;96863;-64
2023/08/14 10:38:18;;;;;;;1.50;1.27;;;;;;;32.51;29.37;101313.94;5020929;27;97500;-64
2023/08/14 10:40:52;;;;;;;3.10;1.52;;;;;;;32.37;29.47;101318.31;5021663;27;97976;-65
2023/08/14 10:43:25;;;;;;;3.42;1.80;;;;;;;32.40;29.39;101304.28;5021745;27;99813;-64
2023/08/14 10:45:53;;;;;;;3.08;1.42;;;;;;;32.44;29.34;101311.09;5020288;27;96833;-64
2023/08/14 10:48:20;;;;;;;3.80;1.25;;;;;;;32.37;29.46;101301.06;5021335;27;97780;-66
2023/08/14 10:50:48;;;;;;;4.53;1.52;;;;;;;32.35;29.88;101305.88;5024354;27;99111;-64
2023/08/14 10:53:16;;;;;;;3.75;1.45;;;;;;;32.30;30.16;101297.34;5025066;27;98927;-64
2023/08/14 10:55:45;;;;;;;3.08;1.35;;;;;;;32.27;30.22;101297.72;5024664;27;97165;-63
2023/08/14 10:58:38;;;;;;;7.53;1.90;;;;;;;32.37;30.40;101292.84;5022483;27;99094;-63
2023/08/14 11:01:07;;;;;;;4.65;1.52;;;;;;;32.42;30.49;101295.91;5020905;27;98744;-64
2023/08/14 11:03:35;;;;;;;2.63;1.38;;;;;;;32.74;30.23;101283.84;5025360;27;97711;-64
2023/08/14 11:06:01;;;;;;;6.13;1.63;;;;;;;32.78;30.96;101287.91;5027528;27;100252;-64
2023/08/14 11:08:30;;;;;;;3.53;1.50;;;;;;;32.48;31.45;101286.97;5021555;27;97130;-64
2023/08/14 11:10:57;;;;;;;5.20;1.42;;;;;;;32.41;32.13;101288.75;5025438;27;98953;-64
2023/08/14 11:13:27;;;;;;;2.92;1.88;;;;;;;32.45;32.50;101290.06;5020320;27;99386;-64
2023/08/14 11:15:54;;;;;;;2.38;1.60;;;;;;;32.38;32.47;101287.22;5021695;27;96864;-65
2023/08/14 11:18:22;;;;;;;4.18;1.65;;;;;;;32.37;33.02;101281.91;5021435;27;97602;-64
2023/08/14 11:20:48;;;;;;;3.60;1.90;;;;;;;32.57;33.37;101274.91;5011790;27;99107;-64
2023/08/14 11:23:14;;;;;;;2.63;1.60;;;;;;;32.88;32.52;101276.72;5019262;27;99733;-65
2023/08/14 11:25:40;;;;;;;4.00;1.38;;;;;;;32.93;31.78;101274.25;5023352;27;97322;-65